createdAt,value
2023-01-01T00:00:51.534Z,21.07
2023-01-01T00:03:20.177Z,18.40
2023-01-01T00:05:49.993Z,25.17
2023-01-01T00:08:18.487Z,23.53
2023-01-01T00:10:46.920Z,24.53
2023-01-01T00:13:15.555Z,36.90
2023-01-01T00:15:44.013Z,20.37
2023-01-01T00:18:12.478Z,22.80
2023-01-01T00:20:41.046Z,17.27
2023-01-01T00:23:10.905Z,17.10
2023-01-01T00:25:40.954Z,26.57
2023-01-01T00:28:10.013Z,23.17
2023-01-01T00:30:41.695Z,19.07
2023-01-01T00:33:10.235Z,18.33
2023-01-01T00:35:38.676Z,17.73
2023-01-01T00:38:08.253Z,23.73
2023-01-01T00:40:38.129Z,23.80
2023-01-01T00:43:06.603Z,17.03
2023-01-01T00:45:35.229Z,13.13
2023-01-01T00:48:03.810Z,19.83
2023-01-01T00:50:32.332Z,17.87
2023-01-01T00:53:00.761Z,11.73
2023-01-01T00:55:29.812Z,11.97
2023-01-01T00:57:59.642Z,16.60
2023-01-01T01:00:28.265Z,11.07
2023-01-01T01:02:56.850Z,13.83
2023-01-01T01:05:25.396Z,10.73
2023-01-01T01:07:54.080Z,12.63
2023-01-01T01:10:22.547Z,15.10
2023-01-01T01:12:51.031Z,11.70
2023-01-01T01:15:21.381Z,10.60
2023-01-01T01:17:49.840Z,10.70
2023-01-01T01:20:18.389Z,14.67
2023-01-01T01:22:46.861Z,5.77
2023-01-01T01:25:15.319Z,9.87
2023-01-01T01:27:43.728Z,8.07
2023-01-01T01:30:12.836Z,7.47
2023-01-01T01:32:42.662Z,10.40
2023-01-01T01:35:11.313Z,9.40
2023-01-01T01:37:39.841Z,11.77
2023-01-01T01:40:09.712Z,9.73
2023-01-01T01:42:38.164Z,10.83
2023-01-01T01:45:09.137Z,7.83
2023-01-01T01:47:40.683Z,7.90
2023-01-01T01:50:15.609Z,7.57
2023-01-01T01:52:56.975Z,5.33
2023-01-01T01:55:30.099Z,8.90
2023-01-01T01:57:58.991Z,10.60
2023-01-01T02:00:27.593Z,6.07
2023-01-01T02:03:00.747Z,7.83
2023-01-01T02:05:31.844Z,5.47
2023-01-01T02:08:01.528Z,6.60
2023-01-01T02:10:30.522Z,11.97
2023-01-01T02:12:59.232Z,5.60
2023-01-01T02:15:34.436Z,9.97
2023-01-01T02:18:08.869Z,14.67
2023-01-01T02:20:47.543Z,4.87
2023-01-01T02:23:36.120Z,5.20
2023-01-01T02:26:38.598Z,6.13
2023-01-01T02:29:17.721Z,5.33
2023-01-01T02:31:51.905Z,3.03
2023-01-01T02:34:25.760Z,7.90
2023-01-01T02:36:56.751Z,8.13
2023-01-01T02:39:30.236Z,5.27
2023-01-01T02:42:00.199Z,11.00
2023-01-01T02:44:33.239Z,5.77
2023-01-01T02:47:08.586Z,6.53
2023-01-01T02:49:42.751Z,1.90
2023-01-01T02:52:17.253Z,10.30
2023-01-01T02:54:55.663Z,4.73
2023-01-01T02:57:33.468Z,5.47
2023-01-01T03:00:24.331Z,11.37
2023-01-01T03:03:06.816Z,7.80
2023-01-01T03:06:01.474Z,6.43
2023-01-01T03:08:41.935Z,8.00
2023-01-01T03:11:13.383Z,10.93
2023-01-01T03:13:46.872Z,8.00
2023-01-01T03:16:22.973Z,7.90
2023-01-01T03:19:10.865Z,4.57
2023-01-01T03:21:43.351Z,11.63
2023-01-01T03:24:21.255Z,4.40
2023-01-01T03:26:55.860Z,5.37
2023-01-01T03:29:27.263Z,4.33
2023-01-01T03:31:59.569Z,8.80
2023-01-01T03:34:33.796Z,19.00
2023-01-01T03:37:06.509Z,4.53
2023-01-01T03:39:38.413Z,7.00
2023-01-01T03:42:16.638Z,5.77
2023-01-01T03:44:49.762Z,7.00
2023-01-01T03:47:20.403Z,4.57
2023-01-01T03:49:49.171Z,8.37
2023-01-01T03:52:31.978Z,3.50
2023-01-01T03:55:10.167Z,9.97
2023-01-01T03:57:47.610Z,4.20
2023-01-01T04:00:19.147Z,5.17
2023-01-01T04:02:53.875Z,6.83
2023-01-01T04:05:22.883Z,5.53
2023-01-01T04:07:52.618Z,5.57
2023-01-01T04:10:21.691Z,5.97
2023-01-01T04:12:52.474Z,11.27
2023-01-01T04:15:23.040Z,3.00
2023-01-01T04:17:53.180Z,10.80
2023-01-01T04:20:22.432Z,10.73
2023-01-01T04:22:50.967Z,4.47
2023-01-01T04:25:19.529Z,4.77
2023-01-01T04:27:47.953Z,4.37
2023-01-01T04:30:16.683Z,4.80
2023-01-01T04:32:45.487Z,4.00
2023-01-01T04:35:16.080Z,4.37
2023-01-01T04:37:45.993Z,5.50
2023-01-01T04:40:15.791Z,7.07
2023-01-01T04:42:44.387Z,6.30
2023-01-01T04:45:15.070Z,6.53
2023-01-01T04:47:44.561Z,5.33
2023-01-01T04:50:13.084Z,5.57
2023-01-01T04:52:42.955Z,3.50
2023-01-01T04:55:11.581Z,1.93
2023-01-01T04:57:40.063Z,5.30
2023-01-01T05:00:09.854Z,10.37
2023-01-01T05:02:38.443Z,3.70
2023-01-01T05:05:07.484Z,4.07
2023-01-01T05:07:35.965Z,3.93
2023-01-01T05:10:06.620Z,9.80
2023-01-01T05:12:35.033Z,8.90
2023-01-01T05:15:03.517Z,4.13
2023-01-01T05:17:31.904Z,6.33
2023-01-01T05:20:00.433Z,5.50
2023-01-01T05:22:28.901Z,4.77
2023-01-01T05:24:57.369Z,6.37
2023-01-01T05:27:28.238Z,2.17
2023-01-01T05:29:56.676Z,3.00
2023-01-01T05:32:25.308Z,3.60
2023-01-01T05:34:54.266Z,3.50
2023-01-01T05:37:22.819Z,5.77
2023-01-01T05:39:51.276Z,4.27
2023-01-01T05:42:20.094Z,4.67
2023-01-01T05:44:49.878Z,3.90
2023-01-01T05:47:18.802Z,5.43
2023-01-01T05:49:48.293Z,4.93
2023-01-01T05:52:26.118Z,6.80
2023-01-01T05:54:55.128Z,10.60
2023-01-01T05:57:23.581Z,3.67
2023-01-01T05:59:53.375Z,4.53
2023-01-01T06:02:21.885Z,9.33
2023-01-01T06:04:50.450Z,3.77
2023-01-01T06:07:18.961Z,3.60
2023-01-01T06:09:47.432Z,7.37
2023-01-01T06:12:15.927Z,2.63
2023-01-01T06:14:44.432Z,3.03
2023-01-01T06:17:14.235Z,2.33
2023-01-01T06:19:42.705Z,6.43
2023-01-01T06:22:11.255Z,1.47
2023-01-01T06:24:39.704Z,2.43
2023-01-01T06:27:08.153Z,7.53
2023-01-01T06:29:36.631Z,1.60
2023-01-01T06:32:05.567Z,5.80
2023-01-01T06:34:35.406Z,3.23
2023-01-01T06:37:07.008Z,3.03
2023-01-01T06:39:35.775Z,7.00
2023-01-01T06:42:04.363Z,3.20
2023-01-01T06:44:32.857Z,7.73
2023-01-01T06:47:01.299Z,1.53
2023-01-01T06:49:29.789Z,1.87
2023-01-01T06:51:59.741Z,1.47
2023-01-01T06:54:28.151Z,3.60
2023-01-01T06:56:56.723Z,1.93
2023-01-01T06:59:25.259Z,3.50
2023-01-01T07:01:53.875Z,2.60
2023-01-01T07:04:22.435Z,3.97
2023-01-01T07:06:50.889Z,1.77
2023-01-01T07:09:20.797Z,4.50
2023-01-01T07:11:49.311Z,4.57
2023-01-01T07:14:17.854Z,0.73
2023-01-01T07:16:46.298Z,2.40
2023-01-01T07:19:14.740Z,3.67
2023-01-01T07:21:45.308Z,3.20
2023-01-01T07:24:15.513Z,3.73
2023-01-01T07:26:45.912Z,2.80
2023-01-01T07:29:14.551Z,1.40
2023-01-01T07:31:44.720Z,6.13
2023-01-01T07:34:15.856Z,3.33
2023-01-01T07:36:44.447Z,1.93
2023-01-01T07:39:12.946Z,5.77
2023-01-01T07:41:41.418Z,1.80
2023-01-01T07:44:11.246Z,5.70
2023-01-01T07:46:39.952Z,4.07
2023-01-01T07:49:08.499Z,5.50
2023-01-01T07:51:37.325Z,1.30
2023-01-01T07:54:07.368Z,2.07
2023-01-01T07:56:36.825Z,4.33
2023-01-01T07:59:05.975Z,2.10
2023-01-01T08:01:38.775Z,6.63
2023-01-01T08:04:07.554Z,2.63
2023-01-01T08:06:36.125Z,2.63
2023-01-01T08:09:04.701Z,5.03
2023-01-01T08:11:33.122Z,0.70
2023-01-01T08:14:02.829Z,2.70
2023-01-01T08:16:31.304Z,3.93
2023-01-01T08:19:01.178Z,6.60
2023-01-01T08:21:29.839Z,6.37
2023-01-01T08:23:58.389Z,2.17
2023-01-01T08:26:32.059Z,2.63
2023-01-01T08:29:02.794Z,2.23
2023-01-01T08:31:31.419Z,1.53
2023-01-01T08:34:01.349Z,4.30
2023-01-01T08:36:29.907Z,5.33
2023-01-01T08:38:58.425Z,1.47
2023-01-01T08:41:26.920Z,3.30
2023-01-01T08:43:55.456Z,4.03
2023-01-01T08:46:24.021Z,2.40
2023-01-01T08:48:52.578Z,4.50
2023-01-01T08:51:22.438Z,4.10
2023-01-01T08:53:51.733Z,7.80
2023-01-01T08:56:20.815Z,8.67
2023-01-01T08:58:49.858Z,6.30
2023-01-01T09:01:21.547Z,7.77
2023-01-01T09:03:50.323Z,5.70
2023-01-01T09:06:18.841Z,5.23
2023-01-01T09:08:48.920Z,4.97
2023-01-01T09:11:24.662Z,7.33
2023-01-01T09:13:53.800Z,6.43
2023-01-01T09:16:23.655Z,5.03
2023-01-01T09:18:52.204Z,7.37
2023-01-01T09:21:20.663Z,3.73
2023-01-01T09:23:50.458Z,7.87
2023-01-01T09:26:18.936Z,4.87
2023-01-01T09:28:47.380Z,4.53
2023-01-01T09:31:15.983Z,5.93
2023-01-01T09:33:44.493Z,5.37
2023-01-01T09:36:14.739Z,4.23
2023-01-01T09:38:43.226Z,4.37
2023-01-01T09:41:24.006Z,4.97
2023-01-01T09:44:00.915Z,2.90
2023-01-01T09:46:32.005Z,5.00
2023-01-01T09:49:04.253Z,5.43
2023-01-01T09:51:48.712Z,3.13
2023-01-01T09:54:26.955Z,3.30
2023-01-01T09:57:00.137Z,7.63
2023-01-01T09:59:29.139Z,3.77
2023-01-01T10:02:03.842Z,3.60
2023-01-01T10:04:42.686Z,3.67
2023-01-01T10:07:20.879Z,4.87
2023-01-01T10:09:58.179Z,4.80
2023-01-01T10:12:36.038Z,4.80
2023-01-01T10:15:13.252Z,8.53
2023-01-01T10:17:45.801Z,6.50
2023-01-01T10:20:21.129Z,7.37
2023-01-01T10:22:53.522Z,6.60
2023-01-01T10:25:26.362Z,7.20
2023-01-01T10:28:00.641Z,5.77
2023-01-01T10:30:30.447Z,6.33
2023-01-01T10:32:59.738Z,0.83
2023-01-01T10:35:35.219Z,7.43
2023-01-01T10:38:05.691Z,6.60
2023-01-01T10:40:35.323Z,12.03
2023-01-01T10:43:05.140Z,8.53
2023-01-01T10:45:35.728Z,8.73
2023-01-01T10:48:15.789Z,9.27
2023-01-01T10:50:48.089Z,3.57
2023-01-01T10:53:24.720Z,13.23
2023-01-01T10:56:00.499Z,6.60
2023-01-01T10:58:38.194Z,7.77
2023-01-01T11:01:08.332Z,7.47
2023-01-01T11:03:37.436Z,7.00
2023-01-01T11:06:20.935Z,5.97
2023-01-01T11:08:50.973Z,11.67
2023-01-01T11:11:28.147Z,8.70
2023-01-01T11:14:00.923Z,8.97
2023-01-01T11:16:30.431Z,8.03
2023-01-01T11:19:04.310Z,3.77
2023-01-01T11:21:34.104Z,6.73
2023-01-01T11:24:18.719Z,9.70
2023-01-01T11:26:53.939Z,6.30
2023-01-01T11:29:29.293Z,11.33
2023-01-01T11:32:00.658Z,6.90
2023-01-01T11:34:35.847Z,8.37
2023-01-01T11:37:27.722Z,7.20
2023-01-01T11:39:58.665Z,5.17
2023-01-01T11:42:29.780Z,6.07
2023-01-01T11:45:02.666Z,11.87
2023-01-01T11:47:35.749Z,3.13
2023-01-01T11:50:15.821Z,6.77
2023-01-01T11:52:48.027Z,6.80
2023-01-01T11:55:23.303Z,5.97
2023-01-01T11:58:02.484Z,10.27
2023-01-01T12:00:36.659Z,7.57
2023-01-01T12:03:13.881Z,7.00
2023-01-01T12:05:49.785Z,7.93
2023-01-01T12:08:38.229Z,4.70
2023-01-01T12:11:19.689Z,6.77
2023-01-01T12:13:56.927Z,7.90
2023-01-01T12:16:38.010Z,5.97
2023-01-01T12:19:13.501Z,11.70
2023-01-01T12:21:50.734Z,6.63
2023-01-01T12:24:22.002Z,4.83
2023-01-01T12:27:11.384Z,7.43
2023-01-01T12:29:55.140Z,5.87
2023-01-01T12:32:33.801Z,7.97
2023-01-01T12:35:14.492Z,6.30
2023-01-01T12:37:54.969Z,8.90
2023-01-01T12:40:35.761Z,7.77
2023-01-01T12:43:06.562Z,12.87
2023-01-01T12:46:13.681Z,11.67
2023-01-01T12:49:02.112Z,10.20
2023-01-01T12:51:41.908Z,14.17
2023-01-01T12:54:43.058Z,9.67
2023-01-01T12:57:15.544Z,12.80
2023-01-01T12:59:47.245Z,9.20
2023-01-01T13:02:21.421Z,7.87
2023-01-01T13:04:56.317Z,13.67
2023-01-01T13:07:29.869Z,14.57
2023-01-01T13:10:04.271Z,17.00
2023-01-01T13:12:33.105Z,5.27
2023-01-01T13:15:21.566Z,12.07
2023-01-01T13:17:54.185Z,19.30
2023-01-01T13:20:26.576Z,10.83
2023-01-01T13:22:55.144Z,12.97
2023-01-01T13:25:25.203Z,2.93
2023-01-01T13:28:12.757Z,11.57
2023-01-01T13:30:51.408Z,10.87
2023-01-01T13:33:27.943Z,10.97
2023-01-01T13:36:35.058Z,9.43
2023-01-01T13:39:03.541Z,16.00
2023-01-01T13:41:36.832Z,9.40
2023-01-01T13:44:24.022Z,9.77
2023-01-01T13:47:12.906Z,20.13
2023-01-01T13:50:03.030Z,8.63
2023-01-01T13:52:47.939Z,8.60
2023-01-01T13:55:41.729Z,6.50
2023-01-01T13:58:56.352Z,7.10
2023-01-01T14:01:45.188Z,10.13
2023-01-01T14:04:26.448Z,8.90
2023-01-01T14:06:58.968Z,11.90
2023-01-01T14:09:28.825Z,9.83
2023-01-01T14:11:57.986Z,13.00
2023-01-01T14:14:28.623Z,11.80
2023-01-01T14:17:01.131Z,10.27
2023-01-01T14:19:30.299Z,8.53
2023-01-01T14:21:59.523Z,5.57
2023-01-01T14:24:29.552Z,9.17
2023-01-01T14:26:58.027Z,16.90
2023-01-01T14:29:30.137Z,9.23
2023-01-01T14:32:00.965Z,7.30
2023-01-01T14:34:31.286Z,8.37
2023-01-01T14:37:01.441Z,8.30
2023-01-01T14:39:32.632Z,11.80
2023-01-01T14:42:04.610Z,9.97
2023-01-01T14:44:38.115Z,7.40
2023-01-01T14:47:19.918Z,11.80
2023-01-01T14:49:48.577Z,15.27
2023-01-01T14:52:24.481Z,9.00
2023-01-01T14:54:56.778Z,11.33
2023-01-01T14:57:28.726Z,11.60
2023-01-01T14:59:57.277Z,10.63
2023-01-01T15:02:28.276Z,9.57
2023-01-01T15:04:57.855Z,9.00
2023-01-01T15:07:29.089Z,15.10
2023-01-01T15:10:01.070Z,15.97
2023-01-01T15:12:30.629Z,6.70
2023-01-01T15:14:59.067Z,8.57
2023-01-01T15:17:28.250Z,15.07
2023-01-01T15:20:04.233Z,6.93
2023-01-01T15:22:35.089Z,8.80
2023-01-01T15:25:05.955Z,7.13
2023-01-01T15:27:37.100Z,9.90
2023-01-01T15:30:13.516Z,14.83
2023-01-01T15:32:42.579Z,14.63
2023-01-01T15:35:24.965Z,17.20
2023-01-01T15:38:01.675Z,11.30
2023-01-01T15:40:37.060Z,33.03
2023-01-01T15:43:20.449Z,12.23
2023-01-01T15:45:57.842Z,13.70
2023-01-01T15:48:32.772Z,14.83
2023-01-01T15:51:08.757Z,15.70
2023-01-01T15:53:51.315Z,15.23
2023-01-01T15:56:23.753Z,9.57
2023-01-01T15:58:56.512Z,18.20
2023-01-01T16:01:28.325Z,10.17
2023-01-01T16:04:02.982Z,10.67
2023-01-01T16:06:31.722Z,8.67
2023-01-01T16:09:00.188Z,7.83
2023-01-01T16:11:30.217Z,9.03
2023-01-01T16:13:58.713Z,15.73
2023-01-01T16:16:29.973Z,16.07
2023-01-01T16:18:59.142Z,7.27
2023-01-01T16:21:30.206Z,10.70
2023-01-01T16:23:58.835Z,16.27
2023-01-01T16:26:27.463Z,5.93
2023-01-01T16:28:57.274Z,12.83
2023-01-01T16:31:28.869Z,9.63
2023-01-01T16:33:59.614Z,13.50
2023-01-01T16:36:29.233Z,16.83
2023-01-01T16:38:58.585Z,13.67
2023-01-01T16:41:30.300Z,8.77
2023-01-01T16:44:00.341Z,16.73
2023-01-01T16:46:29.773Z,20.03
2023-01-01T16:48:58.186Z,16.03
2023-01-01T16:51:29.856Z,11.03
2023-01-01T16:54:00.716Z,8.23
2023-01-01T16:56:29.357Z,14.20
2023-01-01T16:59:03.313Z,12.27
2023-01-01T17:01:33.708Z,18.50
2023-01-01T17:04:02.339Z,8.47
2023-01-01T17:06:30.870Z,13.10
2023-01-01T17:09:00.639Z,10.47
2023-01-01T17:11:29.245Z,10.77
2023-01-01T17:13:59.632Z,10.70
2023-01-01T17:16:34.409Z,8.30
2023-01-01T17:19:17.509Z,11.30
2023-01-01T17:21:48.279Z,9.73
2023-01-01T17:24:18.122Z,17.93
2023-01-01T17:26:47.030Z,17.73
2023-01-01T17:29:15.588Z,16.13
2023-01-01T17:31:44.660Z,13.30
2023-01-01T17:34:15.007Z,11.73
2023-01-01T17:36:44.745Z,14.97
2023-01-01T17:39:14.296Z,15.13
2023-01-01T17:41:43.664Z,17.20
2023-01-01T17:44:12.433Z,18.57
2023-01-01T17:46:42.432Z,11.63
2023-01-01T17:49:11.186Z,12.03
2023-01-01T17:51:41.287Z,10.53
2023-01-01T17:54:13.559Z,9.43
2023-01-01T17:56:42.431Z,14.57
2023-01-01T17:59:11.130Z,11.90
2023-01-01T18:01:39.855Z,10.73
2023-01-01T18:04:10.088Z,14.33
2023-01-01T18:06:43.100Z,8.97
2023-01-01T18:09:14.370Z,15.47
2023-01-01T18:11:43.219Z,7.33
2023-01-01T18:14:13.463Z,11.10
2023-01-01T18:16:45.270Z,9.70
2023-01-01T18:19:14.078Z,9.63
2023-01-01T18:21:44.051Z,18.20
2023-01-01T18:24:14.257Z,12.87
2023-01-01T18:26:43.561Z,18.00
2023-01-01T18:29:12.444Z,16.20
2023-01-01T18:31:41.095Z,11.27
2023-01-01T18:34:11.525Z,8.93
2023-01-01T18:36:40.524Z,12.57
2023-01-01T18:39:16.917Z,17.03
2023-01-01T18:42:03.627Z,10.73
2023-01-01T18:44:33.119Z,10.57
2023-01-01T18:47:10.923Z,15.03
2023-01-01T18:49:39.504Z,17.33
2023-01-01T18:52:16.059Z,19.07
2023-01-01T18:54:47.298Z,17.00
2023-01-01T18:57:26.992Z,14.40
2023-01-01T19:00:00.273Z,14.43
2023-01-01T19:02:35.394Z,12.93
2023-01-01T19:05:18.934Z,8.83
2023-01-01T19:07:52.585Z,16.33
2023-01-01T19:10:22.420Z,16.70
2023-01-01T19:12:54.841Z,17.83
2023-01-01T19:15:23.847Z,19.40
2023-01-01T19:17:54.603Z,15.37
2023-01-01T19:20:24.831Z,13.13
2023-01-01T19:22:53.365Z,10.17
2023-01-01T19:25:37.891Z,11.43
2023-01-01T19:28:32.294Z,18.70
2023-01-01T19:31:01.933Z,10.10
2023-01-01T19:33:32.095Z,14.60
2023-01-01T19:36:00.719Z,8.90
2023-01-01T19:38:29.243Z,10.03
2023-01-01T19:40:59.097Z,7.60
2023-01-01T19:43:27.614Z,11.73
2023-01-01T19:45:56.116Z,17.63
2023-01-01T19:48:24.635Z,10.10
2023-01-01T19:50:53.325Z,12.87
2023-01-01T19:53:21.766Z,13.77
2023-01-01T19:55:50.386Z,13.43
2023-01-01T19:58:22.120Z,12.27
2023-01-01T20:00:50.840Z,10.47
2023-01-01T20:03:52.249Z,9.70
2023-01-01T20:06:09.968Z,14.03
2023-01-01T20:08:39.068Z,13.30
2023-01-01T20:11:08.293Z,10.03
2023-01-01T20:13:38.173Z,11.77
2023-01-01T20:16:07.561Z,10.27
2023-01-01T20:18:36.202Z,10.87
2023-01-01T20:21:26.482Z,7.57
2023-01-01T20:23:55.846Z,6.20
2023-01-01T20:26:25.941Z,15.20
2023-01-01T20:29:13.540Z,13.87
2023-01-01T20:31:42.824Z,7.00
2023-01-01T20:34:11.501Z,7.03
2023-01-01T20:36:57.292Z,10.57
2023-01-01T20:39:26.672Z,11.50
2023-01-01T20:41:55.940Z,7.07
2023-01-01T20:44:25.900Z,8.37
2023-01-01T20:46:54.410Z,8.20
2023-01-01T20:49:23.461Z,9.47
2023-01-01T20:51:53.868Z,7.33
2023-01-01T20:54:23.553Z,6.07
2023-01-01T20:56:52.217Z,9.97
2023-01-01T20:59:38.073Z,7.97
2023-01-01T21:02:10.697Z,7.40
2023-01-01T21:04:40.413Z,7.63
2023-01-01T21:07:11.189Z,9.17
2023-01-01T21:09:40.596Z,10.13
2023-01-01T21:12:10.053Z,8.57
2023-01-01T21:14:38.523Z,11.20
2023-01-01T21:17:21.290Z,5.53
2023-01-01T21:19:50.610Z,5.30
2023-01-01T21:22:19.133Z,6.80
2023-01-01T21:24:53.615Z,7.33
2023-01-01T21:27:27.050Z,5.77
2023-01-01T21:29:58.187Z,8.50
2023-01-01T21:32:34.748Z,14.77
2023-01-01T21:35:03.285Z,11.40
2023-01-01T21:37:49.975Z,7.97
2023-01-01T21:40:41.096Z,8.73
2023-01-01T21:43:26.890Z,7.50
2023-01-01T21:45:56.623Z,12.53
2023-01-01T21:48:30.650Z,8.00
2023-01-01T21:50:59.994Z,9.17
2023-01-01T21:53:31.122Z,13.33
2023-01-01T21:56:00.136Z,7.00
2023-01-01T21:58:51.457Z,6.87
2023-01-01T22:01:26.710Z,8.73
2023-01-01T22:04:14.676Z,12.20
2023-01-01T22:06:45.123Z,7.47
2023-01-01T22:09:21.824Z,9.37
2023-01-01T22:11:54.677Z,9.47
2023-01-01T22:14:27.155Z,13.87
2023-01-01T22:16:57.330Z,9.03
2023-01-01T22:19:34.005Z,11.73
2023-01-01T22:22:02.903Z,8.97
2023-01-01T22:24:33.731Z,9.20
2023-01-01T22:27:37.913Z,8.87
2023-01-01T22:30:38.918Z,15.23
2023-01-01T22:33:17.095Z,16.00
2023-01-01T22:35:47.320Z,7.63
2023-01-01T22:38:18.274Z,13.83
2023-01-01T22:40:49.748Z,10.70
2023-01-01T22:43:20.514Z,9.97
2023-01-01T22:45:50.759Z,13.43
2023-01-01T22:48:22.684Z,8.40
2023-01-01T22:50:53.951Z,14.53
2023-01-01T22:53:22.487Z,11.17
2023-01-01T22:55:50.977Z,15.60
2023-01-01T22:58:19.393Z,11.67
2023-01-01T23:00:48.456Z,13.60
2023-01-01T23:03:16.963Z,12.30
2023-01-01T23:05:46.113Z,9.67
2023-01-01T23:08:16.003Z,8.10
2023-01-01T23:10:44.508Z,8.77
2023-01-01T23:13:30.244Z,8.43
2023-01-01T23:16:01.633Z,8.23
2023-01-01T23:18:31.674Z,11.23
2023-01-01T23:21:02.600Z,12.27
2023-01-01T23:23:32.830Z,10.83
2023-01-01T23:26:02.253Z,13.03
2023-01-01T23:28:31.798Z,10.27
2023-01-01T23:31:03.024Z,10.67
2023-01-01T23:33:32.504Z,8.97
2023-01-01T23:36:01.618Z,11.00
2023-01-01T23:38:32.362Z,12.57
2023-01-01T23:41:01.251Z,7.27
2023-01-01T23:43:29.753Z,13.20
2023-01-01T23:45:58.384Z,19.17
2023-01-01T23:48:30.294Z,18.07
2023-01-01T23:50:59.353Z,10.90
2023-01-01T23:53:27.858Z,9.40
2023-01-01T23:55:58.750Z,12.13
2023-01-01T23:58:27.369Z,13.63
